sensor_id;sensor_type;location;lat;lon;timestamp;P1;durP1;ratioP1;P2;durP2;ratioP2
57093;SDS011;42970;50.996;3.706;2022-08-14T00:00:13;1999.90;;;999.90;;
57093;SDS011;42970;50.996;3.706;2022-08-14T00:02:58;1999.90;;;999.90;;
57093;SDS011;42970;50.996;3.706;2022-08-14T00:06:03;1999.90;;;999.90;;
57093;SDS011;42970;50.996;3.706;2022-08-14T00:08:31;1999.90;;;999.90;;
57093;SDS011;42970;50.996;3.706;2022-08-14T00:10:57;70.82;;;8.02;;
57093;SDS011;42970;50.996;3.706;2022-08-14T00:13:32;1904.10;;;139.02;;
57093;SDS011;42970;50.996;3.706;2022-08-14T00:15:58;9.82;;;3.60;;
57093;SDS011;42970;50.996;3.706;2022-08-14T00:18:25;3.65;;;2.88;;
57093;SDS011;42970;50.996;3.706;2022-08-14T00:20:52;13.73;;;3.60;;
57093;SDS011;42970;50.996;3.706;2022-08-14T00:23:20;4.13;;;3.20;;
57093;SDS011;42970;50.996;3.706;2022-08-14T00:25:50;7.78;;;3.08;;
57093;SDS011;42970;50.996;3.706;2022-08-14T00:28:17;3.97;;;3.05;;
57093;SDS011;42970;50.996;3.706;2022-08-14T00:30:45;4.15;;;3.20;;
57093;SDS011;42970;50.996;3.706;2022-08-14T00:33:11;4.70;;;3.38;;
57093;SDS011;42970;50.996;3.706;2022-08-14T00:35:37;4.13;;;3.42;;
57093;SDS011;42970;50.996;3.706;2022-08-14T00:38:02;16.67;;;3.38;;
57093;SDS011;42970;50.996;3.706;2022-08-14T00:40:28;4.25;;;3.45;;
57093;SDS011;42970;50.996;3.706;2022-08-14T00:42:54;13.65;;;3.75;;
57093;SDS011;42970;50.996;3.706;2022-08-14T00:45:19;4.93;;;3.65;;
57093;SDS011;42970;50.996;3.706;2022-08-14T00:47:45;5.53;;;3.42;;
57093;SDS011;42970;50.996;3.706;2022-08-14T00:50:13;3.53;;;3.08;;
57093;SDS011;42970;50.996;3.706;2022-08-14T00:52:45;3.38;;;2.80;;
57093;SDS011;42970;50.996;3.706;2022-08-14T00:55:12;4.45;;;3.72;;
57093;SDS011;42970;50.996;3.706;2022-08-14T00:57:38;5.68;;;4.35;;
57093;SDS011;42970;50.996;3.706;2022-08-14T01:00:06;5.50;;;3.40;;
57093;SDS011;42970;50.996;3.706;2022-08-14T01:17:19;5.70;;;3.60;;
57093;SDS011;42970;50.996;3.706;2022-08-14T01:19:46;4.82;;;3.85;;
57093;SDS011;42970;50.996;3.706;2022-08-14T01:22:30;4.88;;;3.70;;
57093;SDS011;42970;50.996;3.706;2022-08-14T01:24:57;4.07;;;3.30;;
57093;SDS011;42970;50.996;3.706;2022-08-14T01:27:23;7.35;;;3.58;;
57093;SDS011;42970;50.996;3.706;2022-08-14T01:29:50;4.88;;;3.67;;
57093;SDS011;42970;50.996;3.706;2022-08-14T01:32:17;11.65;;;4.15;;
57093;SDS011;42970;50.996;3.706;2022-08-14T01:34:50;9.05;;;3.65;;
57093;SDS011;42970;50.996;3.706;2022-08-14T01:37:20;6.10;;;4.28;;
57093;SDS011;42970;50.996;3.706;2022-08-14T01:39:52;7.22;;;3.80;;
57093;SDS011;42970;50.996;3.706;2022-08-14T01:42:18;4.40;;;3.72;;
57093;SDS011;42970;50.996;3.706;2022-08-14T01:44:45;11.48;;;3.83;;
57093;SDS011;42970;50.996;3.706;2022-08-14T01:47:13;9.95;;;3.60;;
57093;SDS011;42970;50.996;3.706;2022-08-14T01:49:41;4.43;;;3.55;;
57093;SDS011;42970;50.996;3.706;2022-08-14T01:52:07;8.35;;;3.65;;
57093;SDS011;42970;50.996;3.706;2022-08-14T01:54:33;13.32;;;3.80;;
57093;SDS011;42970;50.996;3.706;2022-08-14T01:56:59;6.70;;;3.95;;
57093;SDS011;42970;50.996;3.706;2022-08-14T01:59:26;8.10;;;4.03;;
57093;SDS011;42970;50.996;3.706;2022-08-14T02:01:57;9.88;;;3.58;;
57093;SDS011;42970;50.996;3.706;2022-08-14T02:04:28;3.85;;;3.40;;
57093;SDS011;42970;50.996;3.706;2022-08-14T02:06:57;5.27;;;3.87;;
57093;SDS011;42970;50.996;3.706;2022-08-14T02:09:23;9.20;;;3.60;;
57093;SDS011;42970;50.996;3.706;2022-08-14T02:11:49;7.43;;;3.97;;
57093;SDS011;42970;50.996;3.706;2022-08-14T02:14:16;7.68;;;3.78;;
57093;SDS011;42970;50.996;3.706;2022-08-14T02:16:46;6.20;;;3.60;;
57093;SDS011;42970;50.996;3.706;2022-08-14T02:19:18;5.20;;;3.90;;
57093;SDS011;42970;50.996;3.706;2022-08-14T02:21:46;10.70;;;3.78;;
57093;SDS011;42970;50.996;3.706;2022-08-14T02:24:14;4.95;;;3.60;;
57093;SDS011;42970;50.996;3.706;2022-08-14T02:26:42;6.75;;;3.65;;
57093;SDS011;42970;50.996;3.706;2022-08-14T02:29:13;9.52;;;4.28;;
57093;SDS011;42970;50.996;3.706;2022-08-14T02:31:42;9.30;;;4.28;;
57093;SDS011;42970;50.996;3.706;2022-08-14T02:34:12;7.18;;;3.70;;
57093;SDS011;42970;50.996;3.706;2022-08-14T02:36:37;5.05;;;3.80;;
57093;SDS011;42970;50.996;3.706;2022-08-14T02:39:04;7.13;;;3.85;;
57093;SDS011;42970;50.996;3.706;2022-08-14T02:41:31;5.57;;;4.10;;
57093;SDS011;42970;50.996;3.706;2022-08-14T02:43:58;11.35;;;4.30;;
57093;SDS011;42970;50.996;3.706;2022-08-14T02:46:24;4.90;;;3.97;;
57093;SDS011;42970;50.996;3.706;2022-08-14T02:48:49;5.45;;;3.90;;
57093;SDS011;42970;50.996;3.706;2022-08-14T02:51:15;11.77;;;4.03;;
57093;SDS011;42970;50.996;3.706;2022-08-14T02:53:42;6.72;;;4.50;;
57093;SDS011;42970;50.996;3.706;2022-08-14T02:56:10;6.75;;;4.18;;
57093;SDS011;42970;50.996;3.706;2022-08-14T02:58:42;6.13;;;4.32;;
57093;SDS011;42970;50.996;3.706;2022-08-14T03:01:11;5.28;;;4.30;;
57093;SDS011;42970;50.996;3.706;2022-08-14T03:03:38;4.93;;;3.90;;
57093;SDS011;42970;50.996;3.706;2022-08-14T03:06:03;7.53;;;3.80;;
57093;SDS011;42970;50.996;3.706;2022-08-14T03:08:30;8.63;;;4.38;;
57093;SDS011;42970;50.996;3.706;2022-08-14T03:10:56;5.93;;;3.80;;
57093;SDS011;42970;50.996;3.706;2022-08-14T03:13:23;6.88;;;4.63;;
57093;SDS011;42970;50.996;3.706;2022-08-14T03:15:49;6.18;;;4.28;;
57093;SDS011;42970;50.996;3.706;2022-08-14T03:18:17;5.60;;;4.15;;
57093;SDS011;42970;50.996;3.706;2022-08-14T03:20:43;4.57;;;3.92;;
57093;SDS011;42970;50.996;3.706;2022-08-14T03:23:09;9.63;;;4.72;;
57093;SDS011;42970;50.996;3.706;2022-08-14T03:25:34;8.63;;;4.72;;
57093;SDS011;42970;50.996;3.706;2022-08-14T03:28:01;6.90;;;4.80;;
57093;SDS011;42970;50.996;3.706;2022-08-14T03:30:28;6.35;;;4.32;;
57093;SDS011;42970;50.996;3.706;2022-08-14T03:32:56;6.80;;;4.32;;
57093;SDS011;42970;50.996;3.706;2022-08-14T03:35:22;4.72;;;4.13;;
57093;SDS011;42970;50.996;3.706;2022-08-14T03:37:48;6.38;;;4.50;;
57093;SDS011;42970;50.996;3.706;2022-08-14T03:40:18;7.35;;;4.65;;
57093;SDS011;42970;50.996;3.706;2022-08-14T03:42:44;8.32;;;4.53;;
57093;SDS011;42970;50.996;3.706;2022-08-14T03:45:11;11.70;;;4.80;;
57093;SDS011;42970;50.996;3.706;2022-08-14T03:47:38;6.13;;;4.38;;
57093;SDS011;42970;50.996;3.706;2022-08-14T03:50:08;6.28;;;4.85;;
57093;SDS011;42970;50.996;3.706;2022-08-14T03:52:37;6.07;;;4.72;;
57093;SDS011;42970;50.996;3.706;2022-08-14T03:55:04;8.25;;;4.70;;
57093;SDS011;42970;50.996;3.706;2022-08-14T03:57:32;6.07;;;4.50;;
57093;SDS011;42970;50.996;3.706;2022-08-14T04:00:00;4.85;;;4.20;;
57093;SDS011;42970;50.996;3.706;2022-08-14T04:02:28;8.70;;;4.75;;
57093;SDS011;42970;50.996;3.706;2022-08-14T04:04:54;11.02;;;5.28;;
57093;SDS011;42970;50.996;3.706;2022-08-14T04:07:19;7.65;;;4.78;;
57093;SDS011;42970;50.996;3.706;2022-08-14T04:09:46;6.78;;;5.20;;
57093;SDS011;42970;50.996;3.706;2022-08-14T04:12:12;7.18;;;5.25;;
57093;SDS011;42970;50.996;3.706;2022-08-14T04:14:37;7.03;;;5.32;;
57093;SDS011;42970;50.996;3.706;2022-08-14T04:17:02;6.97;;;4.72;;
57093;SDS011;42970;50.996;3.706;2022-08-14T04:19:28;10.48;;;5.22;;
57093;SDS011;42970;50.996;3.706;2022-08-14T04:21:54;26.45;;;5.07;;
57093;SDS011;42970;50.996;3.706;2022-08-14T04:24:20;12.93;;;5.97;;
57093;SDS011;42970;50.996;3.706;2022-08-14T04:26:47;10.45;;;4.97;;
57093;SDS011;42970;50.996;3.706;2022-08-14T04:29:12;21.05;;;5.03;;
57093;SDS011;42970;50.996;3.706;2022-08-14T04:31:38;15.55;;;5.95;;
57093;SDS011;42970;50.996;3.706;2022-08-14T04:34:04;8.25;;;5.18;;
57093;SDS011;42970;50.996;3.706;2022-08-14T04:36:31;10.38;;;5.03;;
57093;SDS011;42970;50.996;3.706;2022-08-14T04:39:16;10.13;;;5.10;;
57093;SDS011;42970;50.996;3.706;2022-08-14T04:42:00;5.50;;;4.38;;
57093;SDS011;42970;50.996;3.706;2022-08-14T04:44:44;6.47;;;4.63;;
57093;SDS011;42970;50.996;3.706;2022-08-14T04:47:10;7.32;;;4.97;;
57093;SDS011;42970;50.996;3.706;2022-08-14T04:49:54;7.28;;;4.55;;
57093;SDS011;42970;50.996;3.706;2022-08-14T04:52:19;8.00;;;4.88;;
57093;SDS011;42970;50.996;3.706;2022-08-14T04:54:45;5.32;;;4.00;;
57093;SDS011;42970;50.996;3.706;2022-08-14T04:57:10;7.68;;;4.28;;
57093;SDS011;42970;50.996;3.706;2022-08-14T04:59:38;6.28;;;4.25;;
57093;SDS011;42970;50.996;3.706;2022-08-14T05:02:04;9.40;;;4.70;;
57093;SDS011;42970;50.996;3.706;2022-08-14T05:04:29;10.35;;;4.68;;
57093;SDS011;42970;50.996;3.706;2022-08-14T05:06:54;11.82;;;4.00;;
57093;SDS011;42970;50.996;3.706;2022-08-14T05:09:20;8.82;;;4.05;;
57093;SDS011;42970;50.996;3.706;2022-08-14T05:11:46;7.90;;;4.35;;
57093;SDS011;42970;50.996;3.706;2022-08-14T05:14:14;10.52;;;4.18;;
57093;SDS011;42970;50.996;3.706;2022-08-14T05:16:40;5.88;;;3.83;;
57093;SDS011;42970;50.996;3.706;2022-08-14T05:19:05;5.97;;;3.72;;
57093;SDS011;42970;50.996;3.706;2022-08-14T05:21:32;5.60;;;4.03;;
57093;SDS011;42970;50.996;3.706;2022-08-14T05:23:58;11.55;;;3.95;;
57093;SDS011;42970;50.996;3.706;2022-08-14T05:26:24;6.35;;;4.00;;
57093;SDS011;42970;50.996;3.706;2022-08-14T05:28:49;5.30;;;4.07;;
57093;SDS011;42970;50.996;3.706;2022-08-14T05:31:15;6.43;;;4.13;;
57093;SDS011;42970;50.996;3.706;2022-08-14T05:33:42;13.90;;;3.80;;
57093;SDS011;42970;50.996;3.706;2022-08-14T05:36:09;5.93;;;3.50;;
57093;SDS011;42970;50.996;3.706;2022-08-14T05:38:36;4.32;;;3.85;;
57093;SDS011;42970;50.996;3.706;2022-08-14T05:41:25;7.22;;;4.50;;
57093;SDS011;42970;50.996;3.706;2022-08-14T05:43:49;4.25;;;3.58;;
57093;SDS011;42970;50.996;3.706;2022-08-14T05:46:16;6.60;;;3.80;;
57093;SDS011;42970;50.996;3.706;2022-08-14T05:48:46;6.22;;;4.10;;
57093;SDS011;42970;50.996;3.706;2022-08-14T05:51:15;6.93;;;3.20;;
57093;SDS011;42970;50.996;3.706;2022-08-14T05:53:40;9.65;;;3.38;;
57093;SDS011;42970;50.996;3.706;2022-08-14T05:56:06;4.28;;;3.33;;
57093;SDS011;42970;50.996;3.706;2022-08-14T05:58:31;5.95;;;4.15;;
57093;SDS011;42970;50.996;3.706;2022-08-14T06:00:57;7.25;;;3.50;;
57093;SDS011;42970;50.996;3.706;2022-08-14T06:03:22;6.50;;;3.25;;
57093;SDS011;42970;50.996;3.706;2022-08-14T06:05:49;11.60;;;3.72;;
57093;SDS011;42970;50.996;3.706;2022-08-14T06:08:18;6.90;;;3.10;;
57093;SDS011;42970;50.996;3.706;2022-08-14T06:10:43;4.78;;;3.40;;
57093;SDS011;42970;50.996;3.706;2022-08-14T06:13:09;5.25;;;3.17;;
57093;SDS011;42970;50.996;3.706;2022-08-14T06:15:35;6.00;;;3.40;;
57093;SDS011;42970;50.996;3.706;2022-08-14T06:18:01;8.52;;;3.45;;
57093;SDS011;42970;50.996;3.706;2022-08-14T06:20:27;4.28;;;3.20;;
57093;SDS011;42970;50.996;3.706;2022-08-14T06:22:53;5.32;;;3.15;;
57093;SDS011;42970;50.996;3.706;2022-08-14T06:25:19;5.85;;;3.00;;
57093;SDS011;42970;50.996;3.706;2022-08-14T06:27:45;9.63;;;3.70;;
57093;SDS011;42970;50.996;3.706;2022-08-14T06:30:12;3.38;;;2.88;;
57093;SDS011;42970;50.996;3.706;2022-08-14T06:32:46;10.00;;;3.38;;
57093;SDS011;42970;50.996;3.706;2022-08-14T06:35:12;4.47;;;2.92;;
57093;SDS011;42970;50.996;3.706;2022-08-14T06:37:48;4.28;;;2.85;;
57093;SDS011;42970;50.996;3.706;2022-08-14T06:40:16;3.95;;;3.00;;
57093;SDS011;42970;50.996;3.706;2022-08-14T06:42:46;8.60;;;3.40;;
57093;SDS011;42970;50.996;3.706;2022-08-14T06:45:11;11.57;;;3.00;;
57093;SDS011;42970;50.996;3.706;2022-08-14T06:47:37;5.60;;;3.03;;
57093;SDS011;42970;50.996;3.706;2022-08-14T06:50:06;5.10;;;3.05;;
57093;SDS011;42970;50.996;3.706;2022-08-14T06:52:34;3.67;;;2.83;;
57093;SDS011;42970;50.996;3.706;2022-08-14T06:55:01;5.05;;;2.65;;
57093;SDS011;42970;50.996;3.706;2022-08-14T06:57:34;4.50;;;3.05;;
57093;SDS011;42970;50.996;3.706;2022-08-14T07:00:08;5.80;;;2.90;;
57093;SDS011;42970;50.996;3.706;2022-08-14T07:02:36;3.58;;;2.72;;
57093;SDS011;42970;50.996;3.706;2022-08-14T07:08:05;10.57;;;2.97;;
57093;SDS011;42970;50.996;3.706;2022-08-14T07:10:31;5.60;;;3.00;;
57093;SDS011;42970;50.996;3.706;2022-08-14T07:12:57;4.25;;;3.13;;
57093;SDS011;42970;50.996;3.706;2022-08-14T07:15:22;5.47;;;2.70;;
57093;SDS011;42970;50.996;3.706;2022-08-14T07:17:50;6.30;;;3.13;;
57093;SDS011;42970;50.996;3.706;2022-08-14T07:20:16;3.60;;;2.90;;
57093;SDS011;42970;50.996;3.706;2022-08-14T07:22:45;4.25;;;2.83;;
57093;SDS011;42970;50.996;3.706;2022-08-14T07:25:12;6.85;;;2.67;;
57093;SDS011;42970;50.996;3.706;2022-08-14T07:27:38;9.68;;;3.00;;
57093;SDS011;42970;50.996;3.706;2022-08-14T07:30:05;3.17;;;2.50;;
57093;SDS011;42970;50.996;3.706;2022-08-14T07:32:31;9.00;;;2.70;;
57093;SDS011;42970;50.996;3.706;2022-08-14T07:34:57;4.75;;;2.83;;
57093;SDS011;42970;50.996;3.706;2022-08-14T07:37:22;9.63;;;3.00;;
57093;SDS011;42970;50.996;3.706;2022-08-14T07:39:48;4.30;;;2.75;;
57093;SDS011;42970;50.996;3.706;2022-08-14T07:42:15;13.00;;;2.95;;
57093;SDS011;42970;50.996;3.706;2022-08-14T07:44:41;3.15;;;2.38;;
57093;SDS011;42970;50.996;3.706;2022-08-14T07:47:06;3.55;;;2.70;;
57093;SDS011;42970;50.996;3.706;2022-08-14T07:49:32;10.23;;;2.95;;
57093;SDS011;42970;50.996;3.706;2022-08-14T07:51:58;5.88;;;2.67;;
57093;SDS011;42970;50.996;3.706;2022-08-14T07:54:25;5.82;;;2.95;;
57093;SDS011;42970;50.996;3.706;2022-08-14T07:56:51;4.82;;;2.65;;
57093;SDS011;42970;50.996;3.706;2022-08-14T07:59:16;6.82;;;2.80;;
57093;SDS011;42970;50.996;3.706;2022-08-14T08:01:42;9.18;;;2.97;;
57093;SDS011;42970;50.996;3.706;2022-08-14T08:04:08;1525.70;;;759.83;;
57093;SDS011;42970;50.996;3.706;2022-08-14T08:06:34;51.22;;;25.98;;
57093;SDS011;42970;50.996;3.706;2022-08-14T08:09:04;6.80;;;2.78;;
57093;SDS011;42970;50.996;3.706;2022-08-14T08:11:35;9.40;;;2.80;;
57093;SDS011;42970;50.996;3.706;2022-08-14T08:14:05;3.70;;;2.60;;
57093;SDS011;42970;50.996;3.706;2022-08-14T08:16:31;3.25;;;2.45;;
57093;SDS011;42970;50.996;3.706;2022-08-14T08:18:58;8.73;;;2.50;;
57093;SDS011;42970;50.996;3.706;2022-08-14T08:21:23;6.95;;;2.78;;
57093;SDS011;42970;50.996;3.706;2022-08-14T08:23:50;3.08;;;2.65;;
57093;SDS011;42970;50.996;3.706;2022-08-14T08:26:18;3.67;;;2.75;;
57093;SDS011;42970;50.996;3.706;2022-08-14T08:28:53;6.18;;;2.70;;
57093;SDS011;42970;50.996;3.706;2022-08-14T08:31:21;3.55;;;2.80;;
57093;SDS011;42970;50.996;3.706;2022-08-14T08:33:50;4.75;;;2.92;;
57093;SDS011;42970;50.996;3.706;2022-08-14T08:36:16;3.42;;;2.78;;
57093;SDS011;42970;50.996;3.706;2022-08-14T08:38:42;18.08;;;3.13;;
57093;SDS011;42970;50.996;3.706;2022-08-14T08:41:09;5.18;;;3.00;;
57093;SDS011;42970;50.996;3.706;2022-08-14T08:43:35;4.53;;;3.17;;
57093;SDS011;42970;50.996;3.706;2022-08-14T08:46:02;4.70;;;3.05;;
57093;SDS011;42970;50.996;3.706;2022-08-14T08:48:48;7.68;;;3.17;;
57093;SDS011;42970;50.996;3.706;2022-08-14T08:51:28;8.93;;;3.38;;
57093;SDS011;42970;50.996;3.706;2022-08-14T08:54:04;15.77;;;3.10;;
57093;SDS011;42970;50.996;3.706;2022-08-14T08:56:40;7.13;;;3.28;;
57093;SDS011;42970;50.996;3.706;2022-08-14T09:01:51;3.58;;;2.95;;
57093;SDS011;42970;50.996;3.706;2022-08-14T09:04:23;5.15;;;3.08;;
57093;SDS011;42970;50.996;3.706;2022-08-14T09:06:54;3.10;;;2.75;;
57093;SDS011;42970;50.996;3.706;2022-08-14T09:09:25;3.70;;;3.30;;
57093;SDS011;42970;50.996;3.706;2022-08-14T09:11:52;11.63;;;3.13;;
57093;SDS011;42970;50.996;3.706;2022-08-14T09:14:23;3.60;;;2.75;;
57093;SDS011;42970;50.996;3.706;2022-08-14T09:16:50;3.58;;;3.05;;
57093;SDS011;42970;50.996;3.706;2022-08-14T09:19:16;3.92;;;3.00;;
57093;SDS011;42970;50.996;3.706;2022-08-14T09:21:43;5.30;;;2.70;;
57093;SDS011;42970;50.996;3.706;2022-08-14T09:24:10;3.95;;;3.22;;
57093;SDS011;42970;50.996;3.706;2022-08-14T09:26:36;2.83;;;2.50;;
57093;SDS011;42970;50.996;3.706;2022-08-14T09:29:05;3.17;;;2.75;;
57093;SDS011;42970;50.996;3.706;2022-08-14T09:31:33;3.47;;;2.70;;
57093;SDS011;42970;50.996;3.706;2022-08-14T09:36:33;4.40;;;2.92;;
57093;SDS011;42970;50.996;3.706;2022-08-14T09:42:22;6.47;;;3.00;;
57093;SDS011;42970;50.996;3.706;2022-08-14T09:47:46;6.90;;;2.90;;
57093;SDS011;42970;50.996;3.706;2022-08-14T09:50:15;8.38;;;2.80;;
57093;SDS011;42970;50.996;3.706;2022-08-14T09:52:52;10.48;;;3.42;;
57093;SDS011;42970;50.996;3.706;2022-08-14T09:55:21;4.28;;;2.78;;
57093;SDS011;42970;50.996;3.706;2022-08-14T09:57:48;5.45;;;2.80;;
57093;SDS011;42970;50.996;3.706;2022-08-14T10:00:16;3.50;;;3.03;;
57093;SDS011;42970;50.996;3.706;2022-08-14T10:02:50;4.03;;;2.75;;
57093;SDS011;42970;50.996;3.706;2022-08-14T10:05:26;7.15;;;2.67;;
57093;SDS011;42970;50.996;3.706;2022-08-14T10:08:00;7.57;;;2.72;;
57093;SDS011;42970;50.996;3.706;2022-08-14T10:13:00;4.93;;;2.90;;
57093;SDS011;42970;50.996;3.706;2022-08-14T10:15:29;3.55;;;2.35;;
57093;SDS011;42970;50.996;3.706;2022-08-14T10:18:29;4.88;;;2.70;;
57093;SDS011;42970;50.996;3.706;2022-08-14T10:20:52;4.03;;;2.42;;
57093;SDS011;42970;50.996;3.706;2022-08-14T10:23:22;5.35;;;2.70;;
57093;SDS011;42970;50.996;3.706;2022-08-14T10:25:49;2.92;;;2.35;;
57093;SDS011;42970;50.996;3.706;2022-08-14T10:28:21;3.35;;;2.33;;
57093;SDS011;42970;50.996;3.706;2022-08-14T10:30:47;9.30;;;2.60;;
57093;SDS011;42970;50.996;3.706;2022-08-14T10:33:27;7.18;;;2.40;;
57093;SDS011;42970;50.996;3.706;2022-08-14T10:35:55;15.23;;;2.67;;
57093;SDS011;42970;50.996;3.706;2022-08-14T10:38:31;4.05;;;2.15;;
57093;SDS011;42970;50.996;3.706;2022-08-14T10:41:12;4.75;;;1.95;;
57093;SDS011;42970;50.996;3.706;2022-08-14T10:43:39;3.05;;;2.10;;
57093;SDS011;42970;50.996;3.706;2022-08-14T10:46:12;1999.90;;;999.90;;
57093;SDS011;42970;50.996;3.706;2022-08-14T10:48:55;4.70;;;2.30;;
57093;SDS011;42970;50.996;3.706;2022-08-14T10:51:25;2.00;;;1.80;;
57093;SDS011;42970;50.996;3.706;2022-08-14T10:53:54;121.20;;;29.45;;
57093;SDS011;42970;50.996;3.706;2022-08-14T10:56:28;3.78;;;1.55;;
57093;SDS011;42970;50.996;3.706;2022-08-14T10:59:00;2.38;;;1.80;;
57093;SDS011;42970;50.996;3.706;2022-08-14T11:01:31;6.38;;;1.55;;
57093;SDS011;42970;50.996;3.706;2022-08-14T11:03:59;4.10;;;1.40;;
57093;SDS011;42970;50.996;3.706;2022-08-14T11:06:24;2.72;;;1.77;;
57093;SDS011;42970;50.996;3.706;2022-08-14T11:11:16;1.60;;;1.50;;
57093;SDS011;42970;50.996;3.706;2022-08-14T11:13:43;4.18;;;1.35;;
57093;SDS011;42970;50.996;3.706;2022-08-14T11:16:10;2.90;;;1.70;;
57093;SDS011;42970;50.996;3.706;2022-08-14T11:18:36;3.80;;;1.50;;
57093;SDS011;42970;50.996;3.706;2022-08-14T11:21:03;5.18;;;1.70;;
57093;SDS011;42970;50.996;3.706;2022-08-14T11:23:33;4.28;;;1.40;;
57093;SDS011;42970;50.996;3.706;2022-08-14T11:26:01;2.55;;;1.90;;
57093;SDS011;42970;50.996;3.706;2022-08-14T11:28:28;2.00;;;1.65;;
57093;SDS011;42970;50.996;3.706;2022-08-14T11:30:57;1.73;;;1.50;;
57093;SDS011;42970;50.996;3.706;2022-08-14T11:33:27;2.75;;;1.88;;
57093;SDS011;42970;50.996;3.706;2022-08-14T11:35:56;2.90;;;1.40;;
57093;SDS011;42970;50.996;3.706;2022-08-14T11:38:25;2.85;;;1.42;;
57093;SDS011;42970;50.996;3.706;2022-08-14T11:40:52;2.00;;;1.80;;
57093;SDS011;42970;50.996;3.706;2022-08-14T11:43:20;2.08;;;1.70;;
57093;SDS011;42970;50.996;3.706;2022-08-14T11:45:46;1.92;;;1.60;;
57093;SDS011;42970;50.996;3.706;2022-08-14T11:50:42;5.38;;;1.77;;
57093;SDS011;42970;50.996;3.706;2022-08-14T11:53:17;1.85;;;1.70;;
57093;SDS011;42970;50.996;3.706;2022-08-14T11:55:45;5.80;;;1.70;;
57093;SDS011;42970;50.996;3.706;2022-08-14T11:58:11;4.03;;;1.80;;
57093;SDS011;42970;50.996;3.706;2022-08-14T12:00:50;2.58;;;1.60;;
57093;SDS011;42970;50.996;3.706;2022-08-14T12:03:19;5.28;;;1.60;;
57093;SDS011;42970;50.996;3.706;2022-08-14T12:05:45;5.72;;;1.20;;
57093;SDS011;42970;50.996;3.706;2022-08-14T12:08:10;3.70;;;1.70;;
57093;SDS011;42970;50.996;3.706;2022-08-14T12:10:37;3.65;;;1.55;;
57093;SDS011;42970;50.996;3.706;2022-08-14T12:13:14;2.90;;;1.58;;
57093;SDS011;42970;50.996;3.706;2022-08-14T12:15:41;2.00;;;1.70;;
57093;SDS011;42970;50.996;3.706;2022-08-14T12:18:09;2.40;;;1.42;;
57093;SDS011;42970;50.996;3.706;2022-08-14T12:20:36;26.92;;;3.25;;
57093;SDS011;42970;50.996;3.706;2022-08-14T12:23:05;2.22;;;1.33;;
57093;SDS011;42970;50.996;3.706;2022-08-14T12:25:32;2.75;;;1.50;;
57093;SDS011;42970;50.996;3.706;2022-08-14T12:28:00;5.68;;;1.30;;
57093;SDS011;42970;50.996;3.706;2022-08-14T12:33:04;2.88;;;1.75;;
57093;SDS011;42970;50.996;3.706;2022-08-14T12:35:36;2.38;;;1.70;;
57093;SDS011;42970;50.996;3.706;2022-08-14T12:38:06;1.50;;;1.40;;
57093;SDS011;42970;50.996;3.706;2022-08-14T12:40:43;9.07;;;1.60;;
57093;SDS011;42970;50.996;3.706;2022-08-14T12:43:10;1.70;;;1.60;;
57093;SDS011;42970;50.996;3.706;2022-08-14T12:45:35;10.10;;;1.63;;
57093;SDS011;42970;50.996;3.706;2022-08-14T12:48:02;3.92;;;2.70;;
57093;SDS011;42970;50.996;3.706;2022-08-14T12:50:39;6.35;;;1.77;;
57093;SDS011;42970;50.996;3.706;2022-08-14T12:53:06;4.90;;;1.40;;
57093;SDS011;42970;50.996;3.706;2022-08-14T12:55:33;1.50;;;1.35;;
57093;SDS011;42970;50.996;3.706;2022-08-14T12:58:00;1.50;;;1.40;;
57093;SDS011;42970;50.996;3.706;2022-08-14T13:05:26;1.83;;;1.50;;
57093;SDS011;42970;50.996;3.706;2022-08-14T13:07:54;1.48;;;1.27;;
57093;SDS011;42970;50.996;3.706;2022-08-14T13:10:21;10.80;;;1.50;;
57093;SDS011;42970;50.996;3.706;2022-08-14T13:12:48;3.28;;;1.45;;
57093;SDS011;42970;50.996;3.706;2022-08-14T13:15:15;2.88;;;1.52;;
57093;SDS011;42970;50.996;3.706;2022-08-14T13:17:47;1.58;;;1.48;;
57093;SDS011;42970;50.996;3.706;2022-08-14T13:20:14;1.63;;;1.35;;
57093;SDS011;42970;50.996;3.706;2022-08-14T13:22:42;1.40;;;1.30;;
57093;SDS011;42970;50.996;3.706;2022-08-14T13:25:12;6.00;;;1.80;;
57093;SDS011;42970;50.996;3.706;2022-08-14T13:27:39;1.95;;;1.38;;
57093;SDS011;42970;50.996;3.706;2022-08-14T13:30:09;2.97;;;1.35;;
57093;SDS011;42970;50.996;3.706;2022-08-14T13:32:35;4.55;;;1.80;;
57093;SDS011;42970;50.996;3.706;2022-08-14T13:35:05;2.40;;;1.52;;
57093;SDS011;42970;50.996;3.706;2022-08-14T13:37:31;2.05;;;1.52;;
57093;SDS011;42970;50.996;3.706;2022-08-14T13:39:58;1.27;;;1.17;;
57093;SDS011;42970;50.996;3.706;2022-08-14T13:42:24;1.52;;;1.40;;
57093;SDS011;42970;50.996;3.706;2022-08-14T13:44:52;1.40;;;1.30;;
57093;SDS011;42970;50.996;3.706;2022-08-14T13:47:21;6.05;;;1.40;;
57093;SDS011;42970;50.996;3.706;2022-08-14T13:49:48;5.43;;;1.35;;
57093;SDS011;42970;50.996;3.706;2022-08-14T13:52:16;1.60;;;1.50;;
57093;SDS011;42970;50.996;3.706;2022-08-14T13:54:44;1.33;;;1.23;;
57093;SDS011;42970;50.996;3.706;2022-08-14T13:57:12;1.98;;;1.35;;
57093;SDS011;42970;50.996;3.706;2022-08-14T13:59:42;1.52;;;1.27;;
57093;SDS011;42970;50.996;3.706;2022-08-14T14:02:09;10.98;;;1.70;;
57093;SDS011;42970;50.996;3.706;2022-08-14T14:04:39;4.32;;;1.70;;
57093;SDS011;42970;50.996;3.706;2022-08-14T14:07:07;3.42;;;1.63;;
57093;SDS011;42970;50.996;3.706;2022-08-14T14:09:43;1.50;;;1.40;;
57093;SDS011;42970;50.996;3.706;2022-08-14T14:12:12;6.72;;;1.48;;
57093;SDS011;42970;50.996;3.706;2022-08-14T14:14:40;1.73;;;1.45;;
57093;SDS011;42970;50.996;3.706;2022-08-14T14:17:07;7.10;;;1.95;;
57093;SDS011;42970;50.996;3.706;2022-08-14T14:19:36;1.50;;;1.40;;
57093;SDS011;42970;50.996;3.706;2022-08-14T14:22:03;4.05;;;1.75;;
57093;SDS011;42970;50.996;3.706;2022-08-14T14:24:30;1.80;;;1.60;;
57093;SDS011;42970;50.996;3.706;2022-08-14T14:27:00;1.70;;;1.60;;
57093;SDS011;42970;50.996;3.706;2022-08-14T14:29:29;2.15;;;1.40;;
57093;SDS011;42970;50.996;3.706;2022-08-14T14:31:56;4.10;;;1.70;;
57093;SDS011;42970;50.996;3.706;2022-08-14T14:34:23;2.72;;;1.70;;
57093;SDS011;42970;50.996;3.706;2022-08-14T14:36:50;4.38;;;1.67;;
57093;SDS011;42970;50.996;3.706;2022-08-14T14:39:19;4.13;;;1.60;;
57093;SDS011;42970;50.996;3.706;2022-08-14T14:41:50;1.85;;;1.67;;
57093;SDS011;42970;50.996;3.706;2022-08-14T14:44:18;3.40;;;1.85;;
57093;SDS011;42970;50.996;3.706;2022-08-14T14:46:47;2.05;;;1.40;;
57093;SDS011;42970;50.996;3.706;2022-08-14T14:49:17;3.65;;;1.70;;
57093;SDS011;42970;50.996;3.706;2022-08-14T14:51:43;2.25;;;1.67;;
57093;SDS011;42970;50.996;3.706;2022-08-14T14:54:09;4.22;;;1.60;;
57093;SDS011;42970;50.996;3.706;2022-08-14T14:56:37;4.90;;;1.52;;
57093;SDS011;42970;50.996;3.706;2022-08-14T14:59:06;3.20;;;1.60;;
57093;SDS011;42970;50.996;3.706;2022-08-14T15:01:36;3.13;;;1.50;;
57093;SDS011;42970;50.996;3.706;2022-08-14T15:04:02;5.90;;;1.60;;
57093;SDS011;42970;50.996;3.706;2022-08-14T15:06:30;2.42;;;1.50;;
57093;SDS011;42970;50.996;3.706;2022-08-14T15:08:56;6.18;;;1.73;;
57093;SDS011;42970;50.996;3.706;2022-08-14T15:11:22;2.30;;;1.63;;
57093;SDS011;42970;50.996;3.706;2022-08-14T15:13:48;7.25;;;2.13;;
57093;SDS011;42970;50.996;3.706;2022-08-14T15:16:13;1.58;;;1.40;;
57093;SDS011;42970;50.996;3.706;2022-08-14T15:18:38;2.08;;;1.63;;
57093;SDS011;42970;50.996;3.706;2022-08-14T15:21:05;1.70;;;1.55;;
57093;SDS011;42970;50.996;3.706;2022-08-14T15:23:31;2.80;;;1.60;;
57093;SDS011;42970;50.996;3.706;2022-08-14T15:25:57;9.02;;;1.80;;
57093;SDS011;42970;50.996;3.706;2022-08-14T15:28:23;9.02;;;1.90;;
57093;SDS011;42970;50.996;3.706;2022-08-14T15:30:49;3.13;;;1.63;;
57093;SDS011;42970;50.996;3.706;2022-08-14T15:33:16;1.65;;;1.55;;
57093;SDS011;42970;50.996;3.706;2022-08-14T15:36:02;4.72;;;1.90;;